generaldirectorylistings.org alexa rank chart, generaldirectorylistings.org alexa rank daily changes

generaldirectorylistings.org alexa rank chart, generaldirectorylistings.org alexa rank daily changes

generaldirectorylistings.org
Actual rank:
787 798

RANK HISTORY

Date Rank Diff
2018/05/25 787 798 +249 053
2018/05/23 538 745 -455 212
2018/05/21 993 957 +375 606
2018/05/20 618 351 -42 959
2018/05/19 661 310 -104 515
2018/05/13 765 825 +394 412
2018/05/12 371 413 -466 605
2018/05/11 838 018 +297 605
2018/05/10 540 413 -229 042
2018/05/06 769 455 -113 729
2018/05/05 883 184 +514 751
2018/05/04 368 433 -216 025
2018/04/30 584 458 -84 755
2018/04/29 669 213 -282 272
2018/04/27 951 485 -35 638
2018/04/25 987 123 -6 159
2018/04/24 993 282 +41 797
2018/04/23 951 485 +191 963
2018/04/21 759 522 +155 917
2018/04/20 603 605 -129 343
2018/04/19 732 948 +154 071
2018/04/18 578 877 -78 351
2018/04/15 657 228 -292 534
2018/04/14 949 762 +177 857
2018/04/13 771 905 +423 215
2018/04/12 348 690 -212 921
2018/04/10 561 611 +115 830
2018/04/07 445 781 +59 934
2018/04/06 385 847 -224 731
2018/04/05 610 578 -53 738
2018/04/04 664 316 +120 604
2018/04/01 543 712 -204 377
2018/03/31 748 089 +203 565
2018/03/29 544 524 -371 227
2018/03/28 915 751 +380 946
2018/03/27 534 805 +39 802
2018/03/26 495 003

WIDGET FOR YOUR SITE

DOMAINS WITH THE NEAREST RANK

Domain Rank
bulksocial.net 787 793
ubipharm-gabon.com 787 794
englishschool12.ru 787 795
wattersbrothers.com 787 796
sedamit.hr 787 797
generaldirectorylistings.org 787 798
julijana.ru 787 799
ovozz.ru 787 800
topopt.ru 787 801
1001vieclam.com 787 802
160store.com 787 803

DOMAINS WITH THE NEAREST RANK BY TLD .org

Domain Rank
australia-casino.org 787 683
colegiocpapanama.org 787 706
industriales.org 787 719
lasperseveradoras.org 787 725
publicamente.org 787 743
generaldirectorylistings.org 787 798
jnlp.org 787 888
linuxteamvietnam.org 787 901
1000genomes.org 787 995
14x48.org 788 051
1794meetinghouse.org 788 062